UKBBUKDD

Guest
Details From UKBB - Boryspil
To UKDD - Dnipropetrovsk Intl
Flight Number -
Tags Generated
Created
Modified
Stats Distance 203 nm / 376 km
Max Altitude 0 ft / 0 m
Waypoints 2
Social Downloads 4
Likes 0
Share VATSIM

Download

Looking for another format? Having issues loading an existing format? Contact us
Advertisement - Login to hide

Notes

Generated

Route

UKBB UKDD

ID Type Via Altitude Latitude Longitude Leg Dist Tot Dist Heading (true) Name
O UKBB APT - 0 ft / 0 m 50.36056˚ 30.90660˚ - 0 nm - -
O UKDD APT - 0 ft / 0 m 48.35722˚ 35.08126˚ 202 nm 202 nm 125° / 128° -

Altitude Profile

Advertisement - Login to hide

Weather


0- 5 10 15 20 25 30 35+ Temperature / ° C

Clouds and Precipitation
Forecast for 2017-12-15 12:00 UTC. Updated 2 hours ago

Ground ~20,000 ft ~40,000 ft Winds

UKBB

Details ICAO UKBB (KBP)
Name Boryspil
Region Ukraine
Timezone Europe/Kiev (UTC+2.0)
Stats Elevation 421 ft / 128 m (AMSL)
Location 50.339472° 30.892903°
Runways 2
Magnetic Variation 7.669° E

METAR

UKBB 151030Z 16004MPS 4100 BR OVC002 01/01 Q1008 R88/190060 TEMPO 2000 BR

Decode

TAF

TAF AMD UKBB 150753Z 1507/1606 22004G09MPS 0400 FG OVC002 TEMPO 1507/1510 1200 -DZ BR OVC003 BECMG 1510/1512 15006G12MPS 5000 BR SCT003 OVC005 TEMPO 1512/1522 1400 -RASN BR OVC002 TEMPO 1522/1606 1600 BR BKN004 TX04/1512Z TN01/1605Z

Decode

Departure Runways

ID Width Length Bearing (true) Bearing (mag) Surface Threshold Offset Overrun Length
18L 197 ft / 60 m 13,152 ft / 4,009 m 182.72° 175.05° Concrete 0 ft / 0 m 295 ft / 90 m
18R 207 ft / 63 m 11,470 ft / 3,496 m 182.62° 174.95° Concrete 0 ft / 0 m 164 ft / 50 m
36L 207 ft / 63 m 11,470 ft / 3,496 m 2.62° 354.95° Concrete 0 ft / 0 m 164 ft / 50 m
36R 197 ft / 60 m 13,152 ft / 4,009 m 2.72° 355.05° Concrete 0 ft / 0 m 295 ft / 90 m

UKDD

Details ICAO UKDD (DNK)
Name Dnipropetrovsk Intl
Region Ukraine
Timezone Europe/Kiev (UTC+2.0)
Stats Elevation 481 ft / 147 m (AMSL)
Location 48.357222° 35.100556°
Runways 1
Magnetic Variation 7.843° E

METAR

UKDD 151030Z 23004MPS 190V260 9999 SCT011 OVC028 06/05 Q1011 R26/220356 NOSIG

Decode

TAF

TAF UKDD 150505Z 1506/1606 19006MPS 3100 BR SCT004 BKN011 TEMPO 1506/1511 0300 -DZ FG VV002 TEMPO 1511/1522 18008G13MPS TX06/1512Z TN04/1603Z

Decode

Destination Runways

ID Width Length Bearing (true) Bearing (mag) Surface Threshold Offset Overrun Length
09 144 ft / 44 m 9,359 ft / 2,853 m 89.99° 82.15° Concrete 0 ft / 0 m 0 ft / 0 m
27 144 ft / 44 m 9,359 ft / 2,853 m 270.01° 262.17° Concrete 0 ft / 0 m 0 ft / 0 m

Approach Navaids

Runway Type Ident Frequency Range Bearing (true) Bearing (mag) Slope Elevation
09 Localiser IDP 109.50 MHz 18 nm / 33 km 80.68° 72.84° - 481 ft / 147 m (AMSL)
09 Glidescope IDP 109.50 MHz 10 nm / 19 km 90.00° 82.16° 2.50° 481 ft / 147 m (AMSL)
27 Localiser IDR 110.30 MHz 18 nm / 33 km 269.98° 262.14° - 481 ft / 147 m (AMSL)
27 Glidescope IDR 110.30 MHz 10 nm / 19 km 270.00° 262.16° 3.00° 481 ft / 147 m (AMSL)

Popular Alternatives